createdAt,value
2016-05-28T00:00:56.910Z,0
2016-05-28T00:01:59.819Z,0
2016-05-28T00:02:58.213Z,0
2016-05-28T00:03:56.824Z,0
2016-05-28T00:04:56.952Z,0
2016-05-28T00:05:56.924Z,0
2016-05-28T00:06:57.004Z,0
2016-05-28T00:07:57.024Z,0
2016-05-28T00:08:56.729Z,0
2016-05-28T00:09:56.934Z,0
2016-05-28T00:11:09.969Z,0
2016-05-28T00:12:09.737Z,0
2016-05-28T00:12:57.193Z,0
2016-05-28T00:13:57.196Z,0
2016-05-28T00:15:00.214Z,0
2016-05-28T00:15:57.060Z,0
2016-05-28T00:16:57.234Z,0
2016-05-28T00:18:10.003Z,0
2016-05-28T00:19:16.475Z,0
2016-05-28T00:19:57.650Z,0
2016-05-28T00:20:57.323Z,0
2016-05-28T00:21:58.733Z,0
2016-05-28T00:23:00.408Z,0
2016-05-28T00:23:57.395Z,0
2016-05-28T00:25:10.163Z,0
2016-05-28T00:27:00.606Z,0
2016-05-28T00:28:00.639Z,0
2016-05-28T00:29:00.580Z,0
2016-05-28T00:30:00.427Z,0
2016-05-28T00:31:00.788Z,0
2016-05-28T00:32:00.557Z,0
2016-05-28T00:33:00.747Z,0
2016-05-28T00:34:02.171Z,0
2016-05-28T00:35:02.283Z,0
2016-05-28T00:36:02.255Z,0
2016-05-28T00:37:14.977Z,0
2016-05-28T00:38:00.698Z,0
2016-05-28T00:39:26.544Z,0
2016-05-28T00:40:01.031Z,0
2016-05-28T00:41:02.346Z,0
2016-05-28T00:42:03.974Z,0
2016-05-28T00:43:13.493Z,0
2016-05-28T00:44:01.026Z,0
2016-05-28T00:45:00.982Z,0
2016-05-28T00:46:01.016Z,0
2016-05-28T00:47:13.738Z,0
2016-05-28T00:48:01.053Z,0
2016-05-28T00:49:01.071Z,0
2016-05-28T00:50:01.870Z,0
2016-05-28T00:51:13.873Z,0
2016-05-28T00:52:01.142Z,0
2016-05-28T00:53:26.816Z,0
2016-05-28T00:54:01.022Z,0
2016-05-28T00:55:32.619Z,0
2016-05-28T00:56:01.214Z,0
2016-05-28T00:57:01.140Z,0
2016-05-28T00:58:04.127Z,0
2016-05-28T00:59:01.347Z,0
2016-05-28T01:00:01.304Z,0
2016-05-28T01:01:01.322Z,0
2016-05-28T01:02:14.262Z,0
2016-05-28T01:03:04.093Z,0
2016-05-28T01:04:01.471Z,0
2016-05-28T01:05:07.552Z,0
2016-05-28T01:06:01.523Z,0
2016-05-28T01:07:01.276Z,0
2016-05-28T01:08:01.466Z,0
2016-05-28T01:09:01.391Z,0
2016-05-28T01:10:01.191Z,0
2016-05-28T01:11:01.207Z,0
2016-05-28T01:12:01.523Z,0
2016-05-28T01:13:01.526Z,0
2016-05-28T01:14:01.498Z,0
2016-05-28T01:15:01.500Z,0
2016-05-28T01:16:01.504Z,0
2016-05-28T01:17:01.490Z,0
2016-05-28T01:18:01.665Z,0
2016-05-28T01:19:01.683Z,0
2016-05-28T01:20:14.467Z,0
2016-05-28T01:21:01.782Z,0
2016-05-28T01:22:01.769Z,0
2016-05-28T01:23:01.850Z,0
2016-05-28T01:24:01.650Z,0
2016-05-28T01:25:03.230Z,0
2016-05-28T01:26:01.670Z,0
2016-05-28T01:27:01.875Z,0
2016-05-28T01:28:14.629Z,0
2016-05-28T01:29:01.882Z,0
2016-05-28T01:30:02.025Z,0
2016-05-28T01:31:01.809Z,0
2016-05-28T01:32:01.952Z,0
2016-05-28T01:33:01.986Z,0
2016-05-28T01:34:01.833Z,0
2016-05-28T01:35:21.335Z,0
2016-05-28T01:36:02.072Z,0
2016-05-28T01:37:21.247Z,0
2016-05-28T01:38:02.077Z,0
2016-05-28T01:39:02.096Z,0
2016-05-28T01:40:01.957Z,0
2016-05-28T01:41:15.086Z,0
2016-05-28T01:42:02.166Z,0
2016-05-28T01:43:02.091Z,0
2016-05-28T01:44:02.219Z,0
2016-05-28T01:45:01.924Z,0
2016-05-28T01:46:02.271Z,0
2016-05-28T01:47:02.321Z,0
2016-05-28T01:48:05.011Z,0
2016-05-28T01:49:15.045Z,0
2016-05-28T01:50:02.360Z,0
2016-05-28T01:51:02.378Z,0
2016-05-28T01:52:02.381Z,0
2016-05-28T01:53:15.055Z,0
2016-05-28T01:54:02.448Z,0
2016-05-28T01:55:21.655Z,0
2016-05-28T01:56:15.220Z,0
2016-05-28T01:57:02.317Z,0
2016-05-28T01:58:02.600Z,0
2016-05-28T01:59:02.541Z,0
2016-05-28T02:00:02.544Z,0
2016-05-28T02:01:02.389Z,0
2016-05-28T02:02:02.580Z,0
2016-05-28T02:03:04.222Z,0
2016-05-28T02:04:02.335Z,0
2016-05-28T02:05:04.150Z,0
2016-05-28T02:06:15.450Z,0
2016-05-28T02:07:02.547Z,0
2016-05-28T02:08:28.393Z,0
2016-05-28T02:09:21.927Z,0
2016-05-28T02:10:02.727Z,0
2016-05-28T02:11:02.855Z,0
2016-05-28T02:12:04.216Z,0
2016-05-28T02:13:02.796Z,0
2016-05-28T02:14:02.862Z,0
2016-05-28T02:15:02.849Z,0
2016-05-28T02:16:02.883Z,0
2016-05-28T02:17:02.885Z,0
2016-05-28T02:18:02.920Z,0
2016-05-28T02:19:04.328Z,0
2016-05-28T02:20:03.723Z,0
2016-05-28T02:21:02.975Z,0
2016-05-28T02:22:03.023Z,0
2016-05-28T02:23:02.856Z,0
2016-05-28T02:24:03.076Z,0
2016-05-28T02:25:22.095Z,0
2016-05-28T02:26:03.098Z,0
2016-05-28T02:27:03.100Z,0
2016-05-28T02:28:15.869Z,0
2016-05-28T02:29:03.137Z,0
2016-05-28T02:30:03.014Z,0
2016-05-28T02:31:15.767Z,0
2016-05-28T02:32:03.051Z,0
2016-05-28T02:33:03.085Z,0
2016-05-28T02:34:03.260Z,0
2016-05-28T02:35:03.152Z,0
2016-05-28T02:36:03.265Z,0
2016-05-28T02:37:03.284Z,0
2016-05-28T02:38:03.364Z,0
2016-05-28T02:39:03.352Z,0
2016-05-28T02:40:03.338Z,0
2016-05-28T02:41:03.232Z,0
2016-05-28T02:42:03.093Z,0
2016-05-28T02:43:03.456Z,0
2016-05-28T02:44:03.599Z,0
2016-05-28T02:45:03.460Z,0
2016-05-28T02:46:06.558Z,0
2016-05-28T02:47:03.373Z,0
2016-05-28T02:48:03.376Z,0
2016-05-28T02:49:03.565Z,0
2016-05-28T02:50:04.693Z,0
2016-05-28T02:51:03.321Z,0
2016-05-28T02:52:12.902Z,0
2016-05-28T02:53:03.468Z,0
2016-05-28T02:54:16.109Z,0
2016-05-28T02:55:03.675Z,0
2016-05-28T02:56:03.537Z,0
2016-05-28T02:57:03.743Z,0
2016-05-28T02:58:05.167Z,0
2016-05-28T02:59:03.655Z,0
2016-05-28T03:00:03.814Z,0
2016-05-28T03:01:03.816Z,0
2016-05-28T03:02:03.695Z,0
2016-05-28T03:03:03.822Z,0
2016-05-28T03:04:16.606Z,0
2016-05-28T03:05:05.030Z,0
2016-05-28T03:06:23.142Z,0
2016-05-28T03:07:05.238Z,0
2016-05-28T03:08:05.383Z,0
2016-05-28T03:09:03.807Z,0
2016-05-28T03:10:04.122Z,0
2016-05-28T03:11:05.469Z,0
2016-05-28T03:12:16.878Z,0
2016-05-28T03:13:04.083Z,0
2016-05-28T03:14:03.930Z,0
2016-05-28T03:15:16.807Z,0
2016-05-28T03:16:03.982Z,0
2016-05-28T03:17:04.125Z,0
2016-05-28T03:18:04.175Z,0
2016-05-28T03:19:04.193Z,0
2016-05-28T03:20:05.930Z,0
2016-05-28T03:21:04.323Z,0
2016-05-28T03:22:04.248Z,5
2016-05-28T03:23:17.110Z,5
2016-05-28T03:24:04.270Z,5
2016-05-28T03:25:23.584Z,5
2016-05-28T03:26:04.353Z,5
2016-05-28T03:27:04.355Z,5
2016-05-28T03:28:05.780Z,5
2016-05-28T03:29:04.283Z,5
2016-05-28T03:30:04.426Z,5
2016-05-28T03:31:05.678Z,5
2016-05-28T03:32:17.306Z,5
2016-05-28T03:33:07.340Z,5
2016-05-28T03:34:04.499Z,5
2016-05-28T03:35:24.033Z,5
2016-05-28T03:36:04.536Z,5
2016-05-28T03:37:30.069Z,5
2016-05-28T03:38:04.619Z,5
2016-05-28T03:39:35.902Z,5
2016-05-28T03:40:04.562Z,5
2016-05-28T03:41:04.644Z,5
2016-05-28T03:42:04.646Z,5
2016-05-28T03:43:17.241Z,10
2016-05-28T03:44:04.714Z,10
2016-05-28T03:45:04.716Z,10
2016-05-28T03:46:04.735Z,10
2016-05-28T03:47:04.799Z,10
2016-05-28T03:48:04.771Z,10
2016-05-28T03:49:04.805Z,10
2016-05-28T03:50:05.168Z,15
2016-05-28T03:51:04.873Z,15
2016-05-28T03:52:04.688Z,15
2016-05-28T03:53:07.988Z,15
2016-05-28T03:54:04.882Z,15
2016-05-28T03:55:17.493Z,15
2016-05-28T03:56:05.058Z,15
2016-05-28T03:57:30.623Z,15
2016-05-28T03:58:24.204Z,20
2016-05-28T03:59:36.316Z,20
2016-05-28T04:00:05.162Z,20
2016-05-28T04:01:04.744Z,20
2016-05-28T04:02:05.231Z,20
2016-05-28T04:03:05.093Z,20
2016-05-28T04:04:05.111Z,25
2016-05-28T04:05:05.630Z,25
2016-05-28T04:06:04.976Z,25
2016-05-28T04:07:05.166Z,25
2016-05-28T04:08:05.183Z,25
2016-05-28T04:09:17.781Z,25
2016-05-28T04:10:06.486Z,30
2016-05-28T04:11:05.317Z,30
2016-05-28T04:12:24.445Z,30
2016-05-28T04:13:05.385Z,30
2016-05-28T04:14:05.341Z,30
2016-05-28T04:15:18.063Z,30
2016-05-28T04:16:05.394Z,30
2016-05-28T04:18:14.868Z,30
2016-05-28T04:19:15.168Z,30
2016-05-28T04:20:15.795Z,35
2016-05-28T04:21:15.126Z,35
2016-05-28T04:22:15.253Z,35
2016-05-28T04:23:15.256Z,35
2016-05-28T04:24:16.837Z,40
2016-05-28T04:25:15.309Z,40
2016-05-28T04:26:15.186Z,40
2016-05-28T04:27:15.360Z,40
2016-05-28T04:28:15.425Z,40
2016-05-28T04:29:16.819Z,40
2016-05-28T04:30:16.790Z,40
2016-05-28T04:31:15.495Z,40
2016-05-28T04:32:21.748Z,40
2016-05-28T04:33:15.376Z,40
2016-05-28T04:34:15.488Z,40
2016-05-28T04:35:28.288Z,40
2016-05-28T04:36:15.244Z,40
2016-05-28T04:37:15.606Z,40
2016-05-28T04:38:15.609Z,40
2016-05-28T04:39:28.392Z,40
2016-05-28T04:40:15.645Z,40
2016-05-28T04:41:46.758Z,40
2016-05-28T04:42:18.729Z,40
2016-05-28T04:43:15.544Z,45
2016-05-28T04:44:15.719Z,45
2016-05-28T04:45:15.722Z,45
2016-05-28T04:46:15.833Z,45
2016-05-28T04:47:18.649Z,45
2016-05-28T04:48:28.386Z,45
2016-05-28T04:49:15.638Z,45
2016-05-28T04:50:15.891Z,45
2016-05-28T04:51:15.847Z,45
2016-05-28T04:52:15.896Z,45
2016-05-28T04:53:19.009Z,45
2016-05-28T04:54:15.902Z,45
2016-05-28T04:55:15.748Z,45
2016-05-28T04:56:15.985Z,50
2016-05-28T04:57:16.003Z,50
2016-05-28T04:58:15.990Z,50
2016-05-28T04:59:15.884Z,50
2016-05-28T05:00:16.059Z,55
2016-05-28T05:01:16.170Z,55
2016-05-28T05:02:16.079Z,55
2016-05-28T05:03:16.020Z,55
2016-05-28T05:04:16.131Z,55
2016-05-28T05:05:16.306Z,55
2016-05-28T05:06:16.183Z,55
2016-05-28T05:07:16.202Z,60
2016-05-28T05:08:16.215Z,60
2016-05-28T05:09:16.257Z,60
2016-05-28T05:10:16.409Z,60
2016-05-28T05:11:16.343Z,60
2016-05-28T05:12:16.245Z,60
2016-05-28T05:13:16.454Z,60
2016-05-28T05:14:16.529Z,60
2016-05-28T05:15:16.337Z,60
2016-05-28T05:16:16.379Z,65
2016-05-28T05:17:16.578Z,65
2016-05-28T05:18:16.635Z,70
2016-05-28T05:19:16.625Z,75
2016-05-28T05:20:16.598Z,70
2016-05-28T05:21:16.496Z,70
2016-05-28T05:22:16.689Z,75
2016-05-28T05:23:16.787Z,75
2016-05-28T05:24:16.589Z,75
2016-05-28T05:25:16.780Z,80
2016-05-28T05:26:16.768Z,80
2016-05-28T05:27:16.897Z,85
2016-05-28T05:28:16.806Z,85
2016-05-28T05:29:18.247Z,90
2016-05-28T05:30:16.875Z,90
2016-05-28T05:31:16.894Z,95
2016-05-28T05:32:16.616Z,95
2016-05-28T05:33:16.932Z,95
2016-05-28T05:34:16.949Z,95
2016-05-28T05:35:18.201Z,100
2016-05-28T05:36:17.080Z,100
2016-05-28T05:37:16.848Z,105
2016-05-28T05:38:17.132Z,105
2016-05-28T05:39:16.900Z,115
2016-05-28T05:40:16.950Z,110
2016-05-28T05:41:17.093Z,110
2016-05-28T05:42:17.096Z,110
2016-05-28T05:43:17.129Z,115
2016-05-28T05:44:17.195Z,115
2016-05-28T05:45:29.932Z,120
2016-05-28T05:46:17.217Z,120
2016-05-28T05:47:17.375Z,120
2016-05-28T05:48:17.236Z,125
2016-05-28T05:49:17.396Z,130
2016-05-28T05:50:18.383Z,130
2016-05-28T05:51:17.323Z,135
2016-05-28T05:52:17.358Z,140
2016-05-28T05:53:17.344Z,145
2016-05-28T05:54:17.394Z,155
2016-05-28T05:55:17.427Z,160
2016-05-28T05:56:17.103Z,165
2016-05-28T05:57:17.433Z,170
2016-05-28T05:58:17.483Z,175
2016-05-28T05:59:17.470Z,180
2016-05-28T06:00:17.597Z,180
2016-05-28T06:01:17.538Z,175
2016-05-28T06:02:17.415Z,180
2016-05-28T06:03:17.122Z,180
2016-05-28T06:04:17.265Z,185
2016-05-28T06:05:19.971Z,185
2016-05-28T06:06:17.551Z,185
2016-05-28T06:07:20.772Z,190
2016-05-28T06:08:17.650Z,190
2016-05-28T06:09:19.107Z,190
2016-05-28T06:10:36.968Z,195
2016-05-28T06:11:17.986Z,200
2016-05-28T06:12:17.817Z,205
2016-05-28T06:13:18.039Z,210
2016-05-28T06:14:17.667Z,210
2016-05-28T06:15:17.731Z,215
2016-05-28T06:16:17.531Z,220
2016-05-28T06:17:19.393Z,220
2016-05-28T06:18:19.334Z,220
2016-05-28T06:19:30.336Z,220
2016-05-28T06:20:18.104Z,215
2016-05-28T06:21:30.748Z,215
2016-05-28T06:22:18.016Z,215
2016-05-28T06:23:18.019Z,220
2016-05-28T06:24:18.037Z,225
2016-05-28T06:25:18.071Z,230
2016-05-28T06:26:18.136Z,230
2016-05-28T06:27:17.952Z,240
2016-05-28T06:28:18.172Z,245
2016-05-28T06:29:19.550Z,255
2016-05-28T06:30:21.194Z,260
2016-05-28T06:31:18.180Z,265
2016-05-28T06:32:18.090Z,275
2016-05-28T06:33:18.264Z,280
2016-05-28T06:34:18.142Z,290
2016-05-28T06:35:32.004Z,295
2016-05-28T06:36:21.163Z,300
2016-05-28T06:37:18.243Z,300
2016-05-28T06:38:18.199Z,305
2016-05-28T06:39:18.374Z,310
2016-05-28T06:40:21.252Z,315
2016-05-28T06:41:21.285Z,325
2016-05-28T06:42:18.413Z,335
2016-05-28T06:43:18.323Z,345
2016-05-28T06:44:18.481Z,355
2016-05-28T06:45:18.375Z,360
2016-05-28T06:46:18.627Z,365
2016-05-28T06:47:18.552Z,380
2016-05-28T06:48:18.617Z,380
2016-05-28T06:49:18.620Z,385
2016-05-28T06:50:18.841Z,390
2016-05-28T06:51:18.656Z,395
2016-05-28T06:52:31.440Z,410
2016-05-28T06:53:18.708Z,410
2016-05-28T06:54:18.759Z,420
2016-05-28T06:55:18.730Z,435
2016-05-28T06:56:18.763Z,435
2016-05-28T06:57:18.798Z,445
2016-05-28T06:58:18.786Z,455
2016-05-28T06:59:18.694Z,470
2016-05-28T07:00:18.680Z,480
2016-05-28T07:01:18.933Z,485
2016-05-28T07:02:18.905Z,495
2016-05-28T07:03:18.985Z,510
2016-05-28T07:04:19.004Z,565
2016-05-28T07:05:18.522Z,570
2016-05-28T07:06:18.837Z,595
2016-05-28T07:07:19.059Z,690
2016-05-28T07:08:19.171Z,880
2016-05-28T07:09:18.955Z,690
2016-05-28T07:10:19.192Z,750
2016-05-28T07:11:19.132Z,840
2016-05-28T07:12:18.993Z,650
2016-05-28T07:13:19.200Z,620
2016-05-28T07:14:19.109Z,615
2016-05-28T07:15:19.220Z,620
2016-05-28T07:16:19.255Z,620
2016-05-28T07:17:19.273Z,625
2016-05-28T07:18:19.323Z,670
2016-05-28T07:19:19.341Z,650
2016-05-28T07:20:31.969Z,680
2016-05-28T07:21:32.158Z,690
2016-05-28T07:22:32.146Z,695
2016-05-28T07:23:19.523Z,730
2016-05-28T07:24:45.558Z,735
2016-05-28T07:25:19.576Z,690
2016-05-28T07:26:50.672Z,645
2016-05-28T07:27:19.597Z,635
2016-05-28T07:28:19.599Z,615
2016-05-28T07:29:19.447Z,600
2016-05-28T07:30:38.792Z,590
2016-05-28T07:31:19.451Z,590
2016-05-28T07:32:19.673Z,595
2016-05-28T07:33:19.708Z,595
2016-05-28T07:34:19.741Z,600
2016-05-28T07:35:38.837Z,625
2016-05-28T07:36:19.793Z,650
2016-05-28T07:37:45.546Z,800
2016-05-28T07:38:19.860Z,940
2016-05-28T07:39:19.895Z,1170
2016-05-28T07:40:19.663Z,1070
2016-05-28T07:41:20.041Z,1295
2016-05-28T07:42:19.949Z,1085
2016-05-28T07:43:20.046Z,1250
2016-05-28T07:44:20.049Z,1085
2016-05-28T07:45:19.864Z,1225
2016-05-28T07:46:19.929Z,1255
2016-05-28T07:47:19.962Z,1495
2016-05-28T07:48:20.153Z,1485
2016-05-28T07:49:20.015Z,1555
2016-05-28T07:50:19.893Z,1050
2016-05-28T07:51:20.036Z,1230
2016-05-28T07:52:21.867Z,1310
2016-05-28T07:53:20.261Z,1135
2016-05-28T07:54:20.388Z,1300
2016-05-28T07:55:20.344Z,995
2016-05-28T07:56:20.222Z,960
2016-05-28T07:57:20.412Z,910
2016-05-28T07:58:20.462Z,910
2016-05-28T07:59:33.199Z,1285
2016-05-28T08:00:20.482Z,1130
2016-05-28T08:01:39.751Z,1270
2016-05-28T08:02:23.613Z,950
2016-05-28T08:03:20.694Z,865
2016-05-28T08:04:20.805Z,835
2016-05-28T08:05:20.543Z,795
2016-05-28T08:06:20.639Z,780
2016-05-28T08:07:20.704Z,765
2016-05-28T08:08:20.723Z,770
2016-05-28T08:09:40.007Z,755
2016-05-28T08:10:22.088Z,755
2016-05-28T08:12:23.405Z,710
2016-05-28T08:13:01.765Z,685
2016-05-28T08:13:36.174Z,670
2016-05-28T08:15:33.101Z,625
2016-05-28T08:15:52.085Z,620
2016-05-28T08:16:45.588Z,620
2016-05-28T08:17:47.278Z,635
2016-05-28T08:18:45.906Z,665
2016-05-28T08:19:45.971Z,675
2016-05-28T08:20:45.973Z,680
2016-05-28T08:21:45.946Z,695
2016-05-28T08:22:46.073Z,670
2016-05-28T08:23:45.872Z,670
2016-05-28T08:24:46.234Z,670
2016-05-28T08:25:46.097Z,680
2016-05-28T08:26:46.114Z,700
2016-05-28T08:27:46.181Z,740
2016-05-28T08:28:48.855Z,765
2016-05-28T08:29:46.014Z,770
2016-05-28T08:30:58.954Z,780
2016-05-28T08:31:46.269Z,775
2016-05-28T08:32:46.303Z,755
2016-05-28T08:33:46.211Z,745
2016-05-28T08:34:47.371Z,740
2016-05-28T08:35:46.702Z,740
2016-05-28T08:36:46.282Z,745
2016-05-28T08:37:46.472Z,745
2016-05-28T08:38:46.475Z,740
2016-05-28T08:39:59.260Z,740
2016-05-28T08:40:59.247Z,765
2016-05-28T08:42:12.236Z,775
2016-05-28T08:42:59.565Z,775
2016-05-28T08:43:46.629Z,780
2016-05-28T08:45:12.354Z,810
2016-05-28T08:45:46.698Z,825
2016-05-28T08:46:46.701Z,860
2016-05-28T08:47:46.765Z,885
2016-05-28T08:48:59.487Z,895
2016-05-28T08:50:06.618Z,890
2016-05-28T08:51:43.807Z,875
2016-05-28T08:52:47.106Z,850
2016-05-28T08:53:12.516Z,850
2016-05-28T08:53:59.876Z,840
2016-05-28T08:54:59.940Z,835
2016-05-28T08:56:12.618Z,840
2016-05-28T08:56:59.884Z,855
2016-05-28T08:58:12.716Z,860
2016-05-28T08:58:59.685Z,860
2016-05-28T09:00:00.000Z,840
2016-05-28T09:01:01.488Z,820
2016-05-28T09:02:01.600Z,815
2016-05-28T09:03:03.149Z,815
2016-05-28T09:03:59.981Z,810
2016-05-28T09:04:59.858Z,810
2016-05-28T09:06:01.611Z,825
2016-05-28T09:07:00.238Z,815
2016-05-28T09:08:00.116Z,805
2016-05-28T09:09:13.027Z,790
2016-05-28T09:10:00.215Z,775
2016-05-28T09:12:03.096Z,745
2016-05-28T09:12:15.613Z,745
2016-05-28T09:13:15.663Z,735
2016-05-28T09:14:16.182Z,725
2016-05-28T09:15:18.888Z,715
2016-05-28T09:16:28.687Z,675
2016-05-28T09:17:15.987Z,670
2016-05-28T09:18:16.115Z,645
2016-05-28T09:19:16.007Z,650
2016-05-28T09:20:16.463Z,630
2016-05-28T09:21:35.262Z,615
2016-05-28T09:22:17.532Z,615
2016-05-28T09:23:41.659Z,615
2016-05-28T09:24:19.178Z,620
2016-05-28T09:26:19.996Z,630
2016-05-28T09:26:32.543Z,635
2016-05-28T09:27:32.795Z,645
2016-05-28T09:28:32.781Z,650
2016-05-28T09:29:35.659Z,650
2016-05-28T09:30:45.553Z,655
2016-05-28T09:31:32.868Z,665
2016-05-28T09:33:29.810Z,685
2016-05-28T09:34:01.763Z,680
2016-05-28T09:35:01.907Z,680
2016-05-28T09:36:08.944Z,680
2016-05-28T09:37:01.788Z,680
2016-05-28T09:37:42.602Z,680
2016-05-28T09:38:42.605Z,670
2016-05-28T09:39:55.280Z,660
2016-05-28T09:40:42.876Z,655
2016-05-28T09:42:02.020Z,620
2016-05-28T09:42:42.835Z,600
2016-05-28T09:44:13.902Z,570
2016-05-28T09:44:45.715Z,565
2016-05-28T09:45:42.702Z,575
2016-05-28T09:46:42.893Z,565
2016-05-28T09:47:42.911Z,580
2016-05-28T09:48:55.680Z,605
2016-05-28T09:49:43.416Z,645
2016-05-28T09:50:43.668Z,655
2016-05-28T09:51:44.328Z,655
2016-05-28T09:52:55.784Z,645
2016-05-28T09:53:55.723Z,625
2016-05-28T09:55:33.542Z,590
2016-05-28T09:56:12.404Z,590
2016-05-28T09:56:46.373Z,585
2016-05-28T09:58:17.737Z,560
2016-05-28T09:58:47.737Z,560
2016-05-28T10:00:19.071Z,540
2016-05-28T10:01:05.509Z,535
2016-05-28T10:02:59.263Z,520
2016-05-28T10:03:59.344Z,510
2016-05-28T10:04:47.911Z,510
2016-05-28T10:05:47.116Z,505
2016-05-28T10:06:50.399Z,505
2016-05-28T10:07:46.653Z,505
2016-05-28T10:08:47.874Z,500
2016-05-28T10:09:46.674Z,485
2016-05-28T10:10:46.692Z,480
2016-05-28T10:11:50.086Z,500
2016-05-28T10:12:46.588Z,505
2016-05-28T10:13:59.387Z,515
2016-05-28T10:14:46.796Z,520
2016-05-28T10:17:22.164Z,530
2016-05-28T10:17:56.477Z,530
2016-05-28T10:18:57.901Z,525
2016-05-28T10:20:15.953Z,535
2016-05-28T10:20:56.421Z,540
2016-05-28T10:22:17.755Z,530
2016-05-28T10:22:57.693Z,535
2016-05-28T10:24:56.448Z,535
2016-05-28T10:25:09.075Z,535
2016-05-28T10:26:08.907Z,535
2016-05-28T10:27:09.487Z,540
2016-05-28T10:28:09.381Z,535
2016-05-28T10:29:09.477Z,525
2016-05-28T10:30:09.089Z,525
2016-05-28T10:31:22.045Z,525
2016-05-28T10:32:10.720Z,520
2016-05-28T10:33:09.394Z,500
2016-05-28T10:34:15.678Z,475
2016-05-28T10:35:22.462Z,465
2016-05-28T10:36:22.089Z,455
2016-05-28T10:37:28.717Z,455
2016-05-28T10:38:09.594Z,455
2016-05-28T10:39:09.550Z,455
2016-05-28T10:40:09.600Z,455
2016-05-28T10:41:09.603Z,460
2016-05-28T10:42:09.637Z,455
2016-05-28T10:43:09.671Z,445
2016-05-28T10:44:09.674Z,445
2016-05-28T10:45:09.723Z,440
2016-05-28T10:46:09.757Z,445
2016-05-28T10:47:09.901Z,450
2016-05-28T10:48:09.793Z,445
2016-05-28T10:49:09.671Z,445
2016-05-28T10:50:10.987Z,445
2016-05-28T10:51:09.615Z,445
2016-05-28T10:52:09.898Z,445
2016-05-28T10:53:09.901Z,445
2016-05-28T10:54:09.826Z,445
2016-05-28T10:55:10.719Z,450
2016-05-28T10:56:15.987Z,450
2016-05-28T10:57:10.099Z,450
2016-05-28T10:58:10.024Z,450
2016-05-28T10:59:09.792Z,455
2016-05-28T11:00:10.139Z,450
2016-05-28T11:01:10.156Z,440
2016-05-28T11:02:10.223Z,430
2016-05-28T11:03:22.834Z,425
2016-05-28T11:04:30.040Z,420
2016-05-28T11:05:14.277Z,420
2016-05-28T11:07:25.580Z,425
2016-05-28T11:09:35.288Z,435
2016-05-28T11:10:54.525Z,440
2016-05-28T11:11:36.996Z,445
2016-05-28T11:12:35.530Z,445
2016-05-28T11:13:35.721Z,450
2016-05-28T11:14:35.333Z,445
2016-05-28T11:15:54.913Z,450
2016-05-28T11:16:35.369Z,455
2016-05-28T11:17:35.591Z,470
2016-05-28T11:18:48.188Z,485
2016-05-28T11:19:48.955Z,500
2016-05-28T11:20:54.630Z,510
2016-05-28T11:22:01.289Z,500
2016-05-28T11:23:01.324Z,495
2016-05-28T11:24:38.265Z,480
2016-05-28T11:24:50.968Z,480
2016-05-28T11:25:51.003Z,470
2016-05-28T11:26:52.271Z,465
2016-05-28T11:28:03.929Z,465
2016-05-28T11:28:54.120Z,465
2016-05-28T11:30:16.860Z,475
2016-05-28T11:30:57.188Z,475
2016-05-28T11:32:16.818Z,480
2016-05-28T11:32:52.693Z,485
2016-05-28T11:34:22.684Z,490
2016-05-28T11:34:51.668Z,490
2016-05-28T11:35:51.514Z,485
2016-05-28T11:36:51.157Z,490
2016-05-28T11:38:10.535Z,490
2016-05-28T11:39:04.069Z,480
2016-05-28T11:40:17.105Z,510
2016-05-28T11:40:51.339Z,505
2016-05-28T11:41:51.437Z,490
2016-05-28T11:42:52.470Z,470
2016-05-28T11:43:51.347Z,440
2016-05-28T11:44:51.382Z,425
2016-05-28T11:45:51.525Z,410
2016-05-28T11:46:51.591Z,400
2016-05-28T11:47:52.672Z,390
2016-05-28T11:49:10.658Z,380
2016-05-28T11:49:52.457Z,380
2016-05-28T11:51:54.244Z,375
2016-05-28T11:52:07.104Z,375
2016-05-28T11:53:07.060Z,385
2016-05-28T11:54:07.046Z,375
2016-05-28T11:55:20.099Z,375
2016-05-28T11:56:19.477Z,375
2016-05-28T11:57:19.823Z,365
2016-05-28T11:58:19.842Z,360
2016-05-28T11:59:07.138Z,360
2016-05-28T12:00:10.219Z,355
2016-05-28T12:01:07.285Z,350
2016-05-28T12:02:07.225Z,350
2016-05-28T12:03:07.368Z,345
2016-05-28T12:04:07.276Z,345
2016-05-28T12:05:07.030Z,345
2016-05-28T12:06:26.550Z,345
2016-05-28T12:07:07.394Z,345
2016-05-28T12:08:38.664Z,350
2016-05-28T12:09:07.461Z,355
2016-05-28T12:11:07.500Z,375
2016-05-28T12:12:07.642Z,395
2016-05-28T12:13:07.504Z,415
2016-05-28T12:14:20.369Z,440
2016-05-28T12:15:07.431Z,455
2016-05-28T12:16:07.684Z,465
2016-05-28T12:17:07.640Z,455
2016-05-28T12:18:07.549Z,430
2016-05-28T12:19:07.708Z,415
2016-05-28T12:20:07.602Z,390
2016-05-28T12:21:07.666Z,370
2016-05-28T12:22:07.794Z,355
2016-05-28T12:23:07.812Z,360
2016-05-28T12:24:07.518Z,360
2016-05-28T12:25:08.099Z,365
2016-05-28T12:26:20.604Z,355
2016-05-28T12:27:07.995Z,355
2016-05-28T12:28:07.966Z,360
2016-05-28T12:29:07.984Z,365
2016-05-28T12:30:20.740Z,385
2016-05-28T12:31:07.865Z,420
2016-05-28T12:32:08.242Z,435
2016-05-28T12:33:08.089Z,465
2016-05-28T12:34:07.951Z,495
2016-05-28T12:35:21.128Z,530
2016-05-28T12:36:08.191Z,545
2016-05-28T12:38:05.290Z,565
2016-05-28T12:38:17.903Z,570
2016-05-28T12:39:18.078Z,565
2016-05-28T12:40:18.048Z,550
2016-05-28T12:41:19.520Z,525
2016-05-28T12:42:19.553Z,520
2016-05-28T12:43:30.556Z,520
2016-05-28T12:44:18.137Z,525
2016-05-28T12:45:37.530Z,530
2016-05-28T12:46:18.237Z,525
2016-05-28T12:47:43.802Z,525
2016-05-28T12:48:30.897Z,520
2016-05-28T12:50:33.403Z,490
2016-05-28T12:51:33.687Z,495
2016-05-28T12:52:36.096Z,500
2016-05-28T12:53:33.677Z,500
2016-05-28T12:54:33.538Z,495
2016-05-28T12:55:33.745Z,485
2016-05-28T12:56:33.763Z,490
2016-05-28T12:57:33.781Z,505
2016-05-28T12:58:46.378Z,535
2016-05-28T12:59:46.585Z,560
2016-05-28T13:00:59.571Z,590
2016-05-28T13:02:55.702Z,625
2016-05-28T13:03:08.077Z,645
2016-05-28T13:04:08.532Z,660
2016-05-28T13:05:08.988Z,665
2016-05-28T13:06:11.537Z,690
2016-05-28T13:07:08.478Z,690
2016-05-28T13:08:08.559Z,695
2016-05-28T13:09:08.421Z,695
2016-05-28T13:10:08.595Z,690
2016-05-28T13:11:08.456Z,690
2016-05-28T13:12:08.491Z,700
2016-05-28T13:13:08.666Z,695
2016-05-28T13:14:21.436Z,695
2016-05-28T13:15:08.827Z,680
2016-05-28T13:16:28.020Z,655
2016-05-28T13:17:08.848Z,655
2016-05-28T13:18:08.819Z,640
2016-05-28T13:19:08.853Z,605
2016-05-28T13:20:09.730Z,580
2016-05-28T13:21:08.781Z,560
2016-05-28T13:22:08.986Z,525
2016-05-28T13:23:08.802Z,515
2016-05-28T13:24:09.102Z,510
2016-05-28T13:25:08.885Z,500
2016-05-28T13:26:10.513Z,505
2016-05-28T13:27:09.094Z,500
2016-05-28T13:28:09.143Z,495
2016-05-28T13:29:09.147Z,475
2016-05-28T13:30:09.212Z,475
2016-05-28T13:31:09.230Z,475
2016-05-28T13:32:09.248Z,455
2016-05-28T13:33:10.720Z,460
2016-05-28T13:34:22.054Z,450
2016-05-28T13:35:10.116Z,445
2016-05-28T13:36:09.196Z,440
2016-05-28T13:37:09.262Z,440
2016-05-28T13:38:09.640Z,435
2016-05-28T13:39:09.486Z,420
2016-05-28T13:40:09.504Z,410
2016-05-28T13:41:09.506Z,410
2016-05-28T13:42:09.572Z,410
2016-05-28T13:43:09.590Z,410
2016-05-28T13:44:09.312Z,420
2016-05-28T13:45:09.658Z,450
2016-05-28T13:46:09.786Z,460
2016-05-28T13:47:09.741Z,455
2016-05-28T13:48:09.838Z,470
2016-05-28T13:49:09.450Z,485
2016-05-28T13:51:01.050Z,480
2016-05-28T13:51:13.753Z,470
2016-05-28T13:52:13.817Z,455
2016-05-28T13:53:14.336Z,440
2016-05-28T13:54:13.807Z,440
2016-05-28T13:55:13.841Z,440
2016-05-28T13:56:13.907Z,440
2016-05-28T13:57:13.925Z,440
2016-05-28T13:58:13.958Z,420
2016-05-28T13:59:14.071Z,415
2016-05-28T14:00:14.042Z,405
2016-05-28T14:01:13.951Z,400
2016-05-28T14:02:14.094Z,405
2016-05-28T14:03:14.097Z,410
2016-05-28T14:04:27.056Z,415
2016-05-28T14:05:27.699Z,410
2016-05-28T14:06:39.889Z,395
2016-05-28T14:07:14.232Z,395
2016-05-28T14:08:45.535Z,395
2016-05-28T14:09:14.270Z,390
2016-05-28T14:10:14.351Z,375
2016-05-28T14:11:15.728Z,375
2016-05-28T14:12:14.355Z,390
2016-05-28T14:13:14.406Z,410
2016-05-28T14:14:14.439Z,425
2016-05-28T14:15:14.598Z,435
2016-05-28T14:16:27.259Z,445
2016-05-28T14:17:14.603Z,445